Time;durP1;ratioP1;P1;durP2;ratioP2;P2;SDS_P1;SDS_P2;PMS_P1;PMS_P2;Temp;Humidity;BMP_temperature;BMP_pressure;BME280_temperature;BME280_humidity;BME280_pressure;Samples;Min_cycle;Max_cycle;Signal;HPM_P1;HPM_P2
2024/03/05 00:02:44;;;;;;;101.80;42.35;;;6.40;1.00;;;;;;5097478;28;20055;-79
2024/03/05 00:05:32;;;;;;;110.43;44.97;;;6.40;1.00;;;;;;5095888;28;20489;-81
2024/03/05 00:08:22;;;;;;;108.32;45.05;;;6.40;1.00;;;;;;5091171;28;20044;-79
2024/03/05 00:11:10;;;;;;;121.38;47.72;;;6.40;1.00;;;;;;5082973;28;20055;-81
2024/03/05 00:13:58;;;;;;;124.30;46.20;;;6.30;1.00;;;;;;5099118;28;20150;-81
2024/03/05 00:16:47;;;;;;;118.13;48.80;;;6.30;1.00;;;;;;5099621;28;20066;-80
2024/03/05 00:19:34;;;;;;;121.75;47.47;;;6.30;1.00;;;;;;5096856;28;20039;-83
2024/03/05 00:22:22;;;;;;;117.40;46.47;;;6.30;9.60;;;;;;5096741;28;20403;-80
2024/03/05 00:25:11;;;;;;;126.25;47.05;;;6.40;37.20;;;;;;5087373;28;20043;-80
2024/03/05 00:28:01;;;;;;;114.18;46.13;;;6.30;70.70;;;;;;5082222;28;20126;-82
2024/03/05 00:30:49;;;;;;;115.55;45.95;;;6.30;90.60;;;;;;5094086;28;20135;-81
2024/03/05 00:33:36;;;;;;;110.13;45.90;;;6.40;97.30;;;;;;5106088;28;20158;-80
2024/03/05 00:36:25;;;;;;;111.07;45.95;;;6.30;91.80;;;;;;5097141;28;20031;-83
2024/03/05 00:39:13;;;;;;;111.03;44.80;;;6.30;82.20;;;;;;5094434;28;20043;-80
2024/03/05 00:42:01;;;;;;;106.65;43.13;;;6.30;77.80;;;;;;5088952;28;20054;-80
2024/03/05 00:44:48;;;;;;;105.45;41.97;;;6.30;61.60;;;;;;5106219;28;20176;-83
2024/03/05 00:47:36;;;;;;;104.95;43.03;;;6.30;40.80;;;;;;5098409;28;20420;-81
2024/03/05 00:50:24;;;;;;;106.63;43.25;;;6.30;47.50;;;;;;5087705;28;20094;-80
2024/03/05 00:53:13;;;;;;;98.22;41.97;;;6.30;62.20;;;;;;5103437;28;20040;-81
2024/03/05 00:56:03;;;;;;;107.65;42.47;;;6.20;55.70;;;;;;5099451;28;20050;-81
2024/03/05 00:58:52;;;;;;;111.45;45.47;;;6.20;53.90;;;;;;5083650;28;20127;-80
2024/03/05 01:01:40;;;;;;;107.95;44.47;;;6.20;72.60;;;;;;5091945;28;20050;-81
2024/03/05 01:04:27;;;;;;;113.65;45.95;;;6.20;99.90;;;;;;5095488;28;20085;-82
2024/03/05 01:07:15;;;;;;;118.82;45.47;;;6.10;99.90;;;;;;5100103;28;20699;-81
2024/03/05 01:10:07;;;;;;;128.00;47.92;;;6.20;99.90;;;;;;5091672;28;20155;-82
2024/03/05 01:12:56;;;;;;;84.93;31.45;;;6.10;99.90;;;;;;5112373;27;20633;-77
2024/03/05 01:15:43;;;;;;;115.05;45.22;;;6.10;99.90;;;;;;5117825;28;20056;-79
2024/03/05 01:18:31;;;;;;;114.40;45.65;;;6.10;99.90;;;;;;5118099;27;20048;-80
2024/03/05 01:21:21;;;;;;;119.45;46.50;;;6.10;99.90;;;;;;5124706;28;20054;-79
2024/03/05 01:24:11;;;;;;;115.57;45.13;;;6.10;99.90;;;;;;5108548;28;20043;-79
2024/03/05 01:26:59;;;;;;;123.03;46.05;;;6.10;99.90;;;;;;5120070;28;20044;-79
2024/03/05 01:29:48;;;;;;;118.47;46.13;;;6.10;99.90;;;;;;5116653;28;21077;-79
2024/03/05 01:32:35;;;;;;;107.25;44.13;;;6.10;99.90;;;;;;5085121;28;20075;-82
2024/03/05 01:35:23;;;;;;;121.13;45.95;;;6.10;99.90;;;;;;5099738;28;20040;-83
2024/03/05 01:38:10;;;;;;;118.63;44.60;;;6.10;99.90;;;;;;5102785;27;20096;-81
2024/03/05 01:40:58;;;;;;;116.03;45.58;;;6.10;99.90;;;;;;5101901;28;20470;-82
2024/03/05 01:43:45;;;;;;;106.07;41.80;;;6.10;99.90;;;;;;5098090;28;20109;-81
2024/03/05 01:46:36;;;;;;;115.97;43.88;;;6.10;99.90;;;;;;5095975;28;20455;-80
2024/03/05 01:49:25;;;;;;;117.00;44.97;;;6.10;99.90;;;;;;5101158;28;20096;-79
2024/03/05 01:52:14;;;;;;;120.00;46.28;;;6.10;99.90;;;;;;5102922;28;20036;-80
2024/03/05 01:55:10;;;;;;;128.73;46.88;;;6.10;99.90;;;;;;5108133;27;20040;-79
2024/03/05 01:57:58;;;;;;;127.40;47.35;;;6.10;99.90;;;;;;5100214;27;20036;-79
2024/03/05 02:00:46;;;;;;;134.25;47.92;;;6.10;99.90;;;;;;5108246;28;20117;-77
2024/03/05 02:03:35;;;;;;;130.85;46.63;;;6.10;99.90;;;;;;5098325;28;20056;-81
2024/03/05 02:06:24;;;;;;;138.05;48.15;;;6.00;99.90;;;;;;5097021;28;20040;-81
2024/03/05 02:09:12;;;;;;;136.05;47.58;;;6.00;99.90;;;;;;5095711;28;20454;-82
2024/03/05 02:12:00;;;;;;;137.07;48.75;;;6.00;99.90;;;;;;5111327;28;20057;-77
2024/03/05 02:14:53;;;;;;;132.20;47.08;;;6.00;99.90;;;;;;5119558;27;20044;-79
2024/03/05 02:17:45;;;;;;;139.38;47.17;;;6.00;99.90;;;;;;5113694;28;20065;-80
2024/03/05 02:20:33;;;;;;;141.90;49.33;;;6.00;99.90;;;;;;5097775;28;20119;-81
2024/03/05 02:23:21;;;;;;;133.82;48.80;;;6.00;99.90;;;;;;5102180;28;20040;-81
2024/03/05 02:26:09;;;;;;;146.98;49.70;;;6.00;99.90;;;;;;5103298;28;20036;-83
2024/03/05 02:28:58;;;;;;;144.00;49.50;;;6.00;99.90;;;;;;5101574;28;20440;-78
2024/03/05 02:31:46;;;;;;;162.57;52.08;;;6.10;99.90;;;;;;5084565;28;20447;-81
2024/03/05 02:34:38;;;;;;;146.77;50.67;;;6.10;99.90;;;;;;5097983;27;20101;-80
2024/03/05 02:37:26;;;;;;;158.95;54.55;;;6.10;99.90;;;;;;5101021;28;20161;-80
2024/03/05 02:40:14;;;;;;;150.65;53.42;;;6.10;99.90;;;;;;5087405;28;20051;-80
2024/03/05 02:43:02;;;;;;;137.18;49.35;;;6.10;99.90;;;;;;5102645;28;20499;-82
2024/03/05 02:45:49;;;;;;;148.40;50.55;;;6.10;99.90;;;;;;5081433;28;20128;-82
2024/03/05 02:48:37;;;;;;;157.70;51.72;;;6.10;99.90;;;;;;5082749;28;20041;-81
2024/03/05 02:51:24;;;;;;;158.68;52.65;;;6.10;99.90;;;;;;5096659;28;20059;-80
2024/03/05 02:54:12;;;;;;;148.55;51.15;;;6.10;99.90;;;;;;5108412;27;20058;-80
2024/03/05 02:57:02;;;;;;;158.07;51.95;;;6.00;99.90;;;;;;5101663;28;20039;-81
2024/03/05 02:59:51;;;;;;;167.95;53.10;;;6.00;99.90;;;;;;5098659;27;20067;-81
2024/03/05 03:02:39;;;;;;;163.70;54.88;;;6.00;99.90;;;;;;5099872;28;20130;-81
2024/03/05 03:05:27;;;;;;;168.68;52.80;;;6.00;99.90;;;;;;5083088;28;20036;-81
2024/03/05 03:08:17;;;;;;;174.90;55.28;;;6.00;99.90;;;;;;5086995;27;20050;-81
2024/03/05 03:11:07;;;;;;;176.27;54.38;;;6.00;99.90;;;;;;5097418;27;20051;-82
2024/03/05 03:13:55;;;;;;;173.98;53.85;;;5.90;99.90;;;;;;5102473;28;20182;-82
2024/03/05 03:16:46;;;;;;;189.02;54.70;;;5.90;99.90;;;;;;5101591;28;20054;-82
2024/03/05 03:19:36;;;;;;;187.25;55.60;;;5.90;99.90;;;;;;5088568;28;20035;-80
2024/03/05 03:22:23;;;;;;;193.38;55.03;;;5.80;99.90;;;;;;5098840;28;20468;-80
2024/03/05 03:25:12;;;;;;;181.30;55.42;;;5.80;99.90;;;;;;5100131;28;20126;-80
2024/03/05 03:28:00;;;;;;;173.85;53.50;;;5.80;99.90;;;;;;5102117;28;20047;-81
2024/03/05 03:30:48;;;;;;;171.38;54.22;;;5.70;99.90;;;;;;5088073;28;20043;-81
2024/03/05 03:33:40;;;;;;;172.70;55.30;;;5.70;99.90;;;;;;5113205;28;20173;-81
2024/03/05 03:36:28;;;;;;;188.35;55.15;;;5.70;99.90;;;;;;5092785;28;20118;-79
2024/03/05 03:39:25;;;;;;;205.45;56.80;;;5.80;99.90;;;;;;5098146;28;20036;-79
2024/03/05 03:42:12;;;;;;;189.63;53.65;;;5.80;99.90;;;;;;5094854;28;20093;-81
2024/03/05 03:45:00;;;;;;;214.32;60.22;;;5.80;99.90;;;;;;5091383;28;20044;-81
2024/03/05 03:47:51;;;;;;;214.80;60.17;;;5.80;99.90;;;;;;5108278;28;20061;-78
2024/03/05 03:50:43;;;;;;;221.77;58.83;;;5.80;99.90;;;;;;5105233;28;20051;-80
2024/03/05 03:53:34;;;;;;;243.60;64.32;;;5.80;99.90;;;;;;5096823;28;20045;-83
2024/03/05 03:56:23;;;;;;;240.43;64.83;;;5.80;99.90;;;;;;5102059;28;20031;-83
2024/03/05 03:59:11;;;;;;;222.80;62.35;;;5.80;99.90;;;;;;5106240;28;20169;-81
2024/03/05 04:01:59;;;;;;;230.35;60.33;;;5.80;99.90;;;;;;5085748;28;20048;-83
2024/03/05 04:04:46;;;;;;;245.05;64.13;;;5.90;99.90;;;;;;5071724;28;20107;-79
2024/03/05 04:07:34;;;;;;;248.27;65.22;;;5.90;99.90;;;;;;5101207;28;20051;-79
2024/03/05 04:10:22;;;;;;;237.07;63.38;;;5.90;99.90;;;;;;5107902;28;20126;-77
2024/03/05 04:13:10;;;;;;;257.45;67.20;;;5.90;99.90;;;;;;5109271;28;20491;-84
2024/03/05 04:15:59;;;;;;;242.82;67.47;;;5.90;99.90;;;;;;5103016;28;20124;-81
2024/03/05 04:18:46;;;;;;;233.38;63.17;;;5.90;99.90;;;;;;5117809;28;20099;-80
2024/03/05 04:21:42;;;;;;;241.40;64.30;;;5.80;99.90;;;;;;5102029;28;20023;-81
2024/03/05 04:24:31;;;;;;;257.92;63.42;;;5.80;99.90;;;;;;5103868;28;20047;-78
2024/03/05 04:27:22;;;;;;;246.05;67.47;;;5.80;99.90;;;;;;5104217;28;20452;-81
2024/03/05 04:30:13;;;;;;;248.60;63.92;;;5.80;99.90;;;;;;5107021;28;20103;-81
2024/03/05 04:33:03;;;;;;;259.60;65.13;;;5.80;99.90;;;;;;5105082;28;20052;-83
2024/03/05 04:35:51;;;;;;;254.10;64.90;;;5.80;99.90;;;;;;5104873;27;20039;-80
2024/03/05 04:38:40;;;;;;;252.05;66.00;;;5.80;99.90;;;;;;5111947;27;20048;-82
2024/03/05 04:41:28;;;;;;;247.93;63.00;;;5.80;99.90;;;;;;5105347;28;20058;-79
2024/03/05 04:44:15;;;;;;;263.67;67.13;;;5.80;99.90;;;;;;5102306;28;20084;-78
2024/03/05 04:47:04;;;;;;;261.40;65.60;;;5.80;99.90;;;;;;5112063;28;21088;-81
2024/03/05 04:49:51;;;;;;;262.85;67.28;;;5.80;99.90;;;;;;5090723;28;20078;-79
2024/03/05 04:52:39;;;;;;;261.33;65.63;;;5.80;99.90;;;;;;5096884;27;20480;-81
2024/03/05 04:55:28;;;;;;;256.17;66.05;;;5.80;99.90;;;;;;5106005;28;20043;-79
2024/03/05 04:58:15;;;;;;;251.93;66.35;;;5.80;99.90;;;;;;5106087;28;20043;-81
2024/03/05 05:01:04;;;;;;;256.25;67.70;;;5.90;99.90;;;;;;5107607;28;20189;-82
2024/03/05 05:03:52;;;;;;;274.25;66.20;;;5.90;99.90;;;;;;5107906;27;20039;-80
2024/03/05 05:06:42;;;;;;;257.67;64.43;;;5.90;99.90;;;;;;5096639;27;20058;-83
2024/03/05 05:09:29;;;;;;;280.85;66.60;;;5.80;99.90;;;;;;5110600;28;20381;-81
2024/03/05 05:12:17;;;;;;;269.35;66.70;;;5.80;99.90;;;;;;5092289;28;20058;-78
2024/03/05 05:15:06;;;;;;;271.40;66.35;;;5.80;99.90;;;;;;5100972;28;20035;-81
2024/03/05 05:17:53;;;;;;;269.65;66.63;;;5.80;99.90;;;;;;5103675;27;20043;-82
2024/03/05 05:20:44;;;;;;;291.65;66.88;;;5.80;99.90;;;;;;5110984;28;20050;-82
2024/03/05 05:23:31;;;;;;;266.70;64.53;;;5.80;99.90;;;;;;5104270;28;20119;-80
2024/03/05 05:26:19;;;;;;;272.88;66.40;;;5.80;99.90;;;;;;5104931;27;20061;-81
2024/03/05 05:29:06;;;;;;;277.08;65.68;;;5.90;99.90;;;;;;5107319;28;20480;-81
2024/03/05 05:31:54;;;;;;;298.08;68.85;;;5.90;99.90;;;;;;5102231;27;20099;-80
2024/03/05 05:34:43;;;;;;;281.67;68.53;;;5.90;99.90;;;;;;5104084;28;20048;-82
2024/03/05 05:37:35;;;;;;;307.70;75.43;;;5.90;99.90;;;;;;5109811;27;20047;-82
2024/03/05 05:40:23;;;;;;;289.25;74.43;;;5.90;99.90;;;;;;5106529;28;20039;-78
2024/03/05 05:43:11;;;;;;;285.38;73.22;;;5.90;99.90;;;;;;5112919;27;20437;-79
2024/03/05 05:46:04;;;;;;;279.00;71.30;;;5.90;99.90;;;;;;5115858;27;20071;-79
2024/03/05 05:48:57;;;;;;;296.30;74.20;;;5.90;99.90;;;;;;5112115;27;20047;-82
2024/03/05 05:51:48;;;;;;;323.48;78.00;;;5.90;99.90;;;;;;5110050;27;20052;-80
2024/03/05 05:54:42;;;;;;;338.08;80.32;;;5.90;99.90;;;;;;5114165;27;20089;-77
2024/03/05 05:57:30;;;;;;;338.23;79.05;;;5.90;99.90;;;;;;5110099;27;20043;-78
2024/03/05 06:00:31;;;;;;;334.20;80.47;;;5.90;99.90;;;;;;5104038;27;20046;-77
2024/03/05 06:03:23;;;;;;;331.33;79.47;;;5.90;99.90;;;;;;5113331;27;20050;-80
2024/03/05 06:06:19;;;;;;;337.55;81.30;;;5.90;99.90;;;;;;5112752;27;20059;-76
2024/03/05 06:09:10;;;;;;;354.98;82.95;;;5.90;99.90;;;;;;5097912;27;20144;-77
2024/03/05 06:11:59;;;;;;;350.50;82.80;;;5.90;99.90;;;;;;5099056;27;20397;-78
2024/03/05 06:14:47;;;;;;;365.30;82.18;;;5.90;99.90;;;;;;5089754;27;20043;-79
2024/03/05 06:17:35;;;;;;;354.88;80.93;;;5.90;99.90;;;;;;5088057;27;20042;-79
2024/03/05 06:20:22;;;;;;;381.90;87.95;;;5.90;99.90;;;;;;5095840;28;20410;-77
2024/03/05 06:23:11;;;;;;;377.40;85.25;;;5.90;99.90;;;;;;5095597;27;20039;-77
2024/03/05 06:26:01;;;;;;;346.27;82.43;;;5.90;99.90;;;;;;5067467;28;20532;-77
2024/03/05 06:28:48;;;;;;;382.70;85.05;;;5.90;99.90;;;;;;5090305;27;20048;-77
2024/03/05 06:31:36;;;;;;;335.58;81.22;;;5.90;99.90;;;;;;5085454;28;20102;-77
2024/03/05 06:34:25;;;;;;;354.58;84.03;;;6.00;99.90;;;;;;5082487;28;20035;-77
2024/03/05 06:37:13;;;;;;;353.95;85.22;;;5.90;99.90;;;;;;5091442;27;20063;-77
2024/03/05 06:40:06;;;;;;;319.55;78.68;;;6.00;99.90;;;;;;5078113;27;20047;-82
2024/03/05 06:43:03;;;;;;;349.38;83.07;;;6.00;99.90;;;;;;5093155;27;20328;-80
2024/03/05 06:45:59;;;;;;;365.00;80.07;;;6.00;99.90;;;;;;5084409;27;20054;-78
2024/03/05 06:48:48;;;;;;;363.23;82.78;;;6.00;99.90;;;;;;5112812;27;20094;-78
2024/03/05 06:51:51;;;;;;;358.70;82.85;;;6.00;99.90;;;;;;5094733;27;20170;-80
2024/03/05 06:57:46;;;;;;;362.48;83.32;;;6.00;99.90;;;;;;5082710;28;20129;-81
2024/03/05 07:00:36;;;;;;;351.13;80.53;;;6.00;99.90;;;;;;5092103;28;20695;-80
2024/03/05 07:03:31;;;;;;;350.67;82.70;;;6.00;99.90;;;;;;5102619;27;20051;-78
2024/03/05 07:06:21;;;;;;;354.58;82.90;;;6.00;99.90;;;;;;5105577;27;20111;-78
2024/03/05 07:09:11;;;;;;;357.60;83.88;;;6.00;99.90;;;;;;5106229;27;20133;-81
2024/03/05 07:11:59;;;;;;;342.25;80.00;;;6.00;99.90;;;;;;5116124;27;20350;-80
2024/03/05 07:14:47;;;;;;;303.35;74.22;;;6.10;99.90;;;;;;5105501;28;20059;-81
2024/03/05 07:17:38;;;;;;;320.92;76.82;;;6.10;99.90;;;;;;5104968;27;20156;-83
2024/03/05 07:20:27;;;;;;;313.08;73.75;;;6.10;99.90;;;;;;5081595;28;20035;-81
2024/03/05 07:23:19;;;;;;;309.95;75.05;;;6.10;99.90;;;;;;5097193;27;20419;-79
2024/03/05 07:26:07;;;;;;;306.05;74.53;;;6.10;99.90;;;;;;5094587;28;20046;-82
2024/03/05 07:28:55;;;;;;;307.15;74.03;;;6.10;99.90;;;;;;5103853;27;20049;-79
2024/03/05 07:31:43;;;;;;;290.17;70.15;;;6.10;99.90;;;;;;5103163;27;20452;-81
2024/03/05 07:34:31;;;;;;;266.48;67.32;;;6.10;99.90;;;;;;5096881;27;20059;-82
2024/03/05 07:37:19;;;;;;;260.73;67.93;;;6.10;99.90;;;;;;5081868;28;20032;-80
2024/03/05 07:40:15;;;;;;;247.18;66.18;;;6.10;99.90;;;;;;5092982;27;20853;-80
2024/03/05 07:43:08;;;;;;;251.93;64.63;;;6.20;99.90;;;;;;5063519;28;20049;-79
2024/03/05 07:45:56;;;;;;;239.13;64.50;;;6.10;99.90;;;;;;5100992;27;20590;-82
2024/03/05 07:48:45;;;;;;;241.73;65.32;;;6.20;99.90;;;;;;5102029;27;20608;-78
2024/03/05 07:51:35;;;;;;;237.90;62.30;;;6.20;99.90;;;;;;5101707;28;20059;-77
2024/03/05 07:54:31;;;;;;;235.00;64.10;;;6.20;99.90;;;;;;5110039;28;20039;-80
2024/03/05 07:57:18;;;;;;;208.20;60.00;;;6.30;99.90;;;;;;5115978;28;20093;-82
2024/03/05 08:00:12;;;;;;;213.00;57.05;;;6.30;99.90;;;;;;5085906;28;20111;-77
2024/03/05 08:03:00;;;;;;;185.73;54.35;;;6.30;99.90;;;;;;5108689;28;20040;-77
2024/03/05 08:05:50;;;;;;;175.75;56.05;;;6.30;99.90;;;;;;5105721;28;20047;-80
2024/03/05 08:08:40;;;;;;;173.02;50.70;;;6.20;99.90;;;;;;5084822;28;20371;-82
2024/03/05 08:11:35;;;;;;;154.25;50.83;;;6.20;99.90;;;;;;5085094;27;20061;-82
2024/03/05 08:14:23;;;;;;;157.60;50.75;;;6.30;99.90;;;;;;5100702;27;20054;-78
2024/03/05 08:17:11;;;;;;;147.43;50.33;;;6.30;99.90;;;;;;5124379;27;20048;-78
2024/03/05 08:19:59;;;;;;;148.25;49.30;;;6.30;99.90;;;;;;5113292;27;20091;-76
2024/03/05 08:22:47;;;;;;;147.77;48.28;;;6.30;99.90;;;;;;5112242;27;20047;-76
2024/03/05 08:25:34;;;;;;;138.70;47.47;;;6.40;99.90;;;;;;5102797;27;20533;-78
2024/03/05 08:28:23;;;;;;;126.60;45.08;;;6.40;99.90;;;;;;5104783;27;20048;-79
2024/03/05 08:31:11;;;;;;;119.65;45.65;;;6.40;99.90;;;;;;5085557;27;20535;-77
2024/03/05 08:34:01;;;;;;;120.70;43.85;;;6.40;99.90;;;;;;5096144;27;20668;-78
2024/03/05 08:36:49;;;;;;;118.15;44.42;;;6.40;99.90;;;;;;5106933;27;20264;-76
2024/03/05 08:39:39;;;;;;;103.47;40.22;;;6.40;99.90;;;;;;5110751;27;20049;-75
2024/03/05 08:42:26;;;;;;;96.50;38.20;;;6.40;99.90;;;;;;5094646;27;20564;-76
2024/03/05 08:45:18;;;;;;;88.55;35.90;;;6.40;99.90;;;;;;5110284;27;20062;-78
2024/03/05 08:48:07;;;;;;;83.82;36.30;;;6.40;99.90;;;;;;5103056;27;20048;-77
2024/03/05 08:50:54;;;;;;;72.57;32.47;;;6.40;99.90;;;;;;5083811;27;20122;-76
2024/03/05 08:53:44;;;;;;;69.93;31.48;;;6.40;99.90;;;;;;5081866;28;20052;-76
2024/03/05 08:56:32;;;;;;;66.65;29.52;;;6.40;99.90;;;;;;5093186;27;20123;-77
2024/03/05 08:59:21;;;;;;;63.78;30.73;;;6.40;99.90;;;;;;5091592;27;20499;-82
2024/03/05 09:02:10;;;;;;;59.05;27.33;;;6.50;99.90;;;;;;5088107;28;20038;-82
2024/03/05 09:04:58;;;;;;;59.90;28.70;;;6.40;99.90;;;;;;5088509;27;20039;-78
2024/03/05 09:07:45;;;;;;;54.65;28.45;;;6.40;99.90;;;;;;5098510;27;20059;-78
2024/03/05 09:10:33;;;;;;;47.97;24.70;;;6.50;99.90;;;;;;5105502;27;20035;-78
2024/03/05 09:13:22;;;;;;;54.15;26.48;;;6.60;99.90;;;;;;5091437;28;20035;-77
2024/03/05 09:16:10;;;;;;;49.53;23.77;;;6.50;99.90;;;;;;5099271;27;20047;-80
2024/03/05 09:18:58;;;;;;;52.70;26.70;;;6.60;99.90;;;;;;5103847;28;20531;-78
2024/03/05 09:21:45;;;;;;;42.63;24.15;;;6.60;99.90;;;;;;5118079;27;20038;-78
2024/03/05 09:24:35;;;;;;;42.55;23.17;;;6.60;99.90;;;;;;5106988;27;20063;-81
2024/03/05 09:27:23;;;;;;;43.40;23.15;;;6.60;99.90;;;;;;5112136;27;20378;-77
2024/03/05 09:30:14;;;;;;;42.60;21.90;;;6.60;99.90;;;;;;5111692;27;20043;-79
2024/03/05 09:33:03;;;;;;;45.35;23.30;;;6.60;99.90;;;;;;5117803;27;20056;-77
2024/03/05 09:35:53;;;;;;;42.38;23.33;;;6.60;99.90;;;;;;5119922;27;20052;-79
2024/03/05 09:38:40;;;;;;;41.10;23.15;;;6.70;99.90;;;;;;5123728;27;20098;-75
2024/03/05 09:41:33;;;;;;;47.28;23.00;;;6.80;99.90;;;;;;5119172;27;20091;-79
2024/03/05 09:44:25;;;;;;;41.83;21.85;;;6.90;99.90;;;;;;5111144;27;20124;-80
2024/03/05 09:47:18;;;;;;;33.85;19.25;;;7.00;99.90;;;;;;5089236;27;20338;-82
2024/03/05 09:50:08;;;;;;;29.77;17.27;;;7.10;99.90;;;;;;5097622;27;20416;-82
2024/03/05 09:52:56;;;;;;;27.80;16.55;;;7.20;99.90;;;;;;5095692;28;20043;-80
2024/03/05 09:55:44;;;;;;;33.75;17.88;;;7.20;99.90;;;;;;5103576;27;20106;-79
2024/03/05 09:58:39;;;;;;;27.00;16.38;;;7.30;99.90;;;;;;5097606;27;20059;-81
2024/03/05 10:01:34;;;;;;;30.33;18.17;;;7.20;99.90;;;;;;5117585;27;20114;-76
2024/03/05 10:04:26;;;;;;;41.53;20.70;;;7.30;99.90;;;;;;5106788;27;20114;-81
2024/03/05 10:07:27;;;;;;;31.80;17.13;;;7.40;99.90;;;;;;5087294;27;20109;-79
2024/03/05 10:10:18;;;;;;;29.42;16.92;;;7.50;99.90;;;;;;5098281;27;20628;-79
2024/03/05 10:13:06;;;;;;;24.42;14.88;;;7.60;99.90;;;;;;5103552;27;20047;-78
2024/03/05 10:16:16;;;;;;;25.88;16.17;;;7.60;99.90;;;;;;5100011;27;20190;-80
2024/03/05 10:19:17;;;;;;;24.00;15.88;;;7.50;99.90;;;;;;5085114;28;20092;-77
2024/03/05 10:22:10;;;;;;;25.67;16.58;;;7.40;99.90;;;;;;5095988;27;24157;-81
2024/03/05 10:25:06;;;;;;;27.73;16.17;;;7.30;99.90;;;;;;5102439;27;20551;-79
2024/03/05 10:27:54;;;;;;;30.88;17.23;;;7.30;99.90;;;;;;5112604;27;20043;-77
2024/03/05 10:30:45;;;;;;;23.67;15.85;;;7.30;1.00;;;;;;5086476;27;20134;-81
2024/03/05 10:33:35;;;;;;;24.83;14.68;;;7.20;99.90;;;;;;5097990;28;20380;-80
2024/03/05 10:36:38;;;;;;;24.23;14.57;;;7.20;1.00;;;;;;5106706;27;20043;-79
2024/03/05 10:39:26;;;;;;;20.48;12.93;;;7.20;15.20;;;;;;5107352;28;20039;-79
2024/03/05 10:42:16;;;;;;;19.63;12.70;;;7.10;99.90;;;;;;5082244;28;20226;-79
2024/03/05 10:45:09;;;;;;;16.58;11.52;;;7.00;1.00;;;;;;5107853;27;20546;-80
2024/03/05 10:48:00;;;;;;;16.08;11.13;;;7.00;13.10;;;;;;5076694;28;20130;-79
2024/03/05 10:50:51;;;;;;;17.52;10.48;;;6.90;1.00;;;;;;5099026;27;20071;-78
2024/03/05 10:53:41;;;;;;;16.20;10.20;;;6.90;99.90;;;;;;5097952;28;20043;-79
2024/03/05 10:56:36;;;;;;;16.55;9.13;;;6.90;99.90;;;;;;5092972;28;20473;-82
2024/03/05 10:59:41;;;;;;;12.38;8.00;;;6.90;78.60;;;;;;5097483;27;20047;-80
2024/03/05 11:02:31;;;;;;;11.35;7.53;;;6.90;1.00;;;;;;5100888;27;20084;-81
2024/03/05 11:05:21;;;;;;;10.48;6.68;;;6.90;1.00;;;;;;5099258;27;20613;-80
2024/03/05 11:08:13;;;;;;;11.35;6.93;;;6.90;1.00;;;;;;5098995;28;20047;-80
2024/03/05 11:11:20;;;;;;;7.93;5.88;;;6.90;99.90;;;;;;5097417;27;20109;-80
2024/03/05 11:14:10;;;;;;;9.05;5.72;;;6.90;99.90;;;;;;5096555;28;20123;-80
2024/03/05 11:17:09;;;;;;;7.80;5.35;;;6.90;99.90;;;;;;5092427;27;20059;-79
2024/03/05 11:19:58;;;;;;;9.82;5.22;;;6.90;99.90;;;;;;5094277;28;20545;-80
2024/03/05 11:22:47;;;;;;;6.80;5.30;;;7.00;99.90;;;;;;5098410;27;20523;-79
2024/03/05 11:25:34;;;;;;;7.43;4.95;;;7.00;99.90;;;;;;5090539;28;20507;-80
2024/03/05 11:28:22;;;;;;;6.35;4.68;;;6.80;91.30;;;;;;5099571;27;20584;-80
2024/03/05 11:31:18;;;;;;;6.22;4.78;;;6.70;99.90;;;;;;5099133;27;20043;-79
2024/03/05 11:34:12;;;;;;;5.78;4.13;;;6.70;99.90;;;;;;5099033;28;20122;-81
2024/03/05 11:37:12;;;;;;;6.15;4.60;;;6.60;99.90;;;;;;5085933;28;20046;-81
2024/03/05 11:40:11;;;;;;;5.72;4.35;;;6.60;99.90;;;;;;5113308;28;20052;-75
2024/03/05 11:42:59;;;;;;;4.85;3.92;;;6.60;1.00;;;;;;5099764;27;20054;-80
2024/03/05 11:45:49;;;;;;;4.45;3.80;;;6.60;1.00;;;;;;5098214;28;20115;-76
2024/03/05 11:48:39;;;;;;;4.97;3.60;;;6.50;1.00;;;;;;5110298;28;20052;-80
2024/03/05 11:51:26;;;;;;;4.05;3.05;;;6.50;99.90;;;;;;5082560;28;20062;-82
2024/03/05 11:54:16;;;;;;;32.10;17.10;;;6.50;95.10;;;;;;5095844;28;20043;-79
2024/03/05 11:57:11;;;;;;;4.85;3.67;;;6.60;99.90;;;;;;5116689;28;20115;-82
2024/03/05 11:59:59;;;;;;;2.70;2.30;;;6.70;99.90;;;;;;5113597;28;20052;-75
2024/03/05 12:02:52;;;;;;;3.05;2.22;;;6.70;99.90;;;;;;5092463;28;20104;-79
2024/03/05 12:05:43;;;;;;;3.30;1.98;;;6.80;99.90;;;;;;5108462;28;20050;-79
2024/03/05 12:08:33;;;;;;;3.22;2.38;;;7.00;99.90;;;;;;5096454;28;20040;-80
2024/03/05 12:11:20;;;;;;;2.30;2.10;;;7.10;64.70;;;;;;5097027;27;20191;-79
2024/03/05 12:14:09;;;;;;;1.92;1.73;;;7.40;27.70;;;;;;5099622;28;20534;-80
2024/03/05 12:17:03;;;;;;;1.67;1.58;;;7.50;1.00;;;;;;5101349;28;20042;-79
2024/03/05 12:20:03;;;;;;;2.17;1.73;;;7.80;1.00;;;;;;5097639;28;20074;-80
2024/03/05 12:22:56;;;;;;;1.20;1.10;;;8.10;99.90;;;;;;5094581;28;20032;-79
2024/03/05 12:25:46;;;;;;;1.85;1.48;;;8.40;99.90;;;;;;5097272;28;20089;-79
2024/03/05 12:28:34;;;;;;;1.13;1.10;;;9.10;1.00;;;;;;5087282;28;20042;-80
2024/03/05 12:31:22;;;;;;;1.40;1.30;;;9.30;99.90;;;;;;5106419;27;20473;-77
2024/03/05 12:34:10;;;;;;;1.30;1.20;;;9.10;99.90;;;;;;5099475;28;20052;-78
2024/03/05 12:36:58;;;;;;;1.88;1.02;;;9.30;99.90;;;;;;5082645;28;20123;-80
2024/03/05 12:39:45;;;;;;;1.63;1.40;;;9.00;1.00;;;;;;5103109;28;20044;-77
2024/03/05 12:42:35;;;;;;;1.45;1.35;;;8.80;99.90;;;;;;5100565;27;20040;-79
2024/03/05 12:45:25;;;;;;;0.95;0.95;;;8.80;99.90;;;;;;5104157;28;20134;-81
2024/03/05 12:48:13;;;;;;;1.20;1.10;;;8.90;99.90;;;;;;5084377;28;20097;-78
2024/03/05 12:51:03;;;;;;;1.40;1.30;;;8.70;78.40;;;;;;5123883;28;20064;-78
2024/03/05 12:54:00;;;;;;;1.00;0.90;;;8.80;1.00;;;;;;5113182;27;20090;-80
2024/03/05 12:56:51;;;;;;;1.13;0.98;;;8.90;1.00;;;;;;5100744;28;20048;-79
2024/03/05 12:59:38;;;;;;;0.75;0.73;;;9.10;1.00;;;;;;5106029;27;20452;-79
2024/03/05 13:02:27;;;;;;;0.80;0.80;;;9.10;1.00;;;;;;5087643;28;20131;-81
2024/03/05 13:05:16;;;;;;;0.85;0.85;;;9.10;99.90;;;;;;5099074;27;20040;-81
2024/03/05 13:08:07;;;;;;;1.13;1.00;;;9.30;99.90;;;;;;5086108;28;20079;-79
2024/03/05 13:10:55;;;;;;;0.82;0.82;;;9.60;99.90;;;;;;5110444;27;20046;-78
2024/03/05 13:13:43;;;;;;;0.98;0.93;;;9.90;99.90;;;;;;5110790;27;20036;-79
2024/03/05 13:16:30;;;;;;;1.40;1.30;;;10.00;99.90;;;;;;5086540;28;20070;-80
2024/03/05 13:19:18;;;;;;;1.45;1.30;;;9.40;99.90;;;;;;5105335;27;20039;-80
2024/03/05 13:22:06;;;;;;;1.00;1.00;;;9.30;50.40;;;;;;5085073;28;20051;-79
2024/03/05 13:24:54;;;;;;;1.63;1.35;;;9.50;8.00;;;;;;5087896;28;20503;-80
2024/03/05 13:27:47;;;;;;;1.45;1.33;;;9.60;1.00;;;;;;5109753;27;20205;-81
2024/03/05 13:30:36;;;;;;;2.15;1.90;;;9.40;1.00;;;;;;5103752;27;20114;-77
2024/03/05 13:33:25;;;;;;;2.38;1.60;;;9.20;1.00;;;;;;5110897;27;20039;-79
2024/03/05 13:36:16;;;;;;;2.80;1.80;;;8.80;1.00;;;;;;5097083;27;20431;-80
2024/03/05 13:39:09;;;;;;;1.58;1.33;;;8.60;1.00;;;;;;5093232;28;20051;-80
2024/03/05 13:42:02;;;;;;;3.35;1.70;;;8.50;1.00;;;;;;5102716;27;20054;-80
2024/03/05 13:44:50;;;;;;;2.13;1.92;;;8.40;1.00;;;;;;5093850;28;20384;-83
2024/03/05 13:47:52;;;;;;;1.92;1.45;;;8.30;1.00;;;;;;5099394;27;20200;-78
2024/03/05 13:50:51;;;;;;;1.20;1.10;;;8.30;1.00;;;;;;5097460;28;20083;-80
2024/03/05 13:53:39;;;;;;;1.60;1.50;;;8.30;1.00;;;;;;5092727;28;20051;-80
2024/03/05 13:56:34;;;;;;;1.50;1.40;;;8.30;1.00;;;;;;5081220;27;20044;-81
2024/03/05 13:59:22;;;;;;;2.55;1.27;;;8.60;1.00;;;;;;5097036;27;20054;-81
2024/03/05 14:02:16;;;;;;;1.60;1.00;;;9.00;1.00;;;;;;5098236;27;20039;-79
2024/03/05 14:05:03;;;;;;;1.10;1.00;;;9.50;1.00;;;;;;5108391;27;20772;-81
2024/03/05 14:07:52;;;;;;;1.40;1.17;;;10.00;1.00;;;;;;5108970;28;20115;-78
2024/03/05 14:10:41;;;;;;;1.58;1.48;;;10.30;1.00;;;;;;5101379;28;20062;-79
2024/03/05 14:13:28;;;;;;;1.25;1.10;;;10.20;1.00;;;;;;5107551;27;20461;-81
2024/03/05 14:16:17;;;;;;;1.15;1.05;;;9.90;99.90;;;;;;5096352;27;20470;-79
2024/03/05 14:19:07;;;;;;;1.65;1.27;;;9.80;99.90;;;;;;5098666;28;20512;-79
2024/03/05 14:21:59;;;;;;;1.73;1.20;;;9.70;99.90;;;;;;5109053;27;20062;-81
2024/03/05 14:24:46;;;;;;;1.02;1.02;;;9.70;99.90;;;;;;5097485;27;20911;-78
2024/03/05 14:27:34;;;;;;;3.40;1.70;;;9.30;99.90;;;;;;5122512;28;20052;-77
2024/03/05 14:30:25;;;;;;;4.55;3.10;;;8.80;99.90;;;;;;5118378;27;20081;-80
2024/03/05 14:33:13;;;;;;;1.65;1.55;;;8.70;99.90;;;;;;5118530;27;20063;-78
2024/03/05 14:36:01;;;;;;;1.52;1.42;;;8.60;99.90;;;;;;5102598;28;20051;-79
2024/03/05 14:38:48;;;;;;;1.83;1.50;;;8.50;99.90;;;;;;5097768;28;20036;-78